sensor_id;sensor_type;location;lat;lon;timestamp;pressure;altitude;pressure_sealevel;temperature;humidity
4398;BME280;2213;49.720;7.296;2023-02-28T00:00:47;99040.81;;;0.59;92.31
4398;BME280;2213;49.720;7.296;2023-02-28T00:03:19;99040.41;;;0.65;92.28
4398;BME280;2213;49.720;7.296;2023-02-28T00:05:49;99035.97;;;0.67;92.33
4398;BME280;2213;49.720;7.296;2023-02-28T00:08:20;99042.25;;;0.63;93.02
4398;BME280;2213;49.720;7.296;2023-02-28T00:10:51;99043.19;;;0.62;93.37
4398;BME280;2213;49.720;7.296;2023-02-28T00:13:20;99040.72;;;0.60;93.88
4398;BME280;2213;49.720;7.296;2023-02-28T00:16:00;99035.28;;;0.65;94.13
4398;BME280;2213;49.720;7.296;2023-02-28T00:18:31;99039.78;;;0.61;95.34
4398;BME280;2213;49.720;7.296;2023-02-28T00:21:01;99036.41;;;0.61;96.60
4398;BME280;2213;49.720;7.296;2023-02-28T00:23:31;99039.47;;;0.53;97.24
4398;BME280;2213;49.720;7.296;2023-02-28T00:26:01;99036.19;;;0.51;97.64
4398;BME280;2213;49.720;7.296;2023-02-28T00:28:31;99033.69;;;0.49;97.86
4398;BME280;2213;49.720;7.296;2023-02-28T00:31:01;99035.00;;;0.42;98.33
4398;BME280;2213;49.720;7.296;2023-02-28T00:33:33;99032.84;;;0.36;99.25
4398;BME280;2213;49.720;7.296;2023-02-28T00:36:04;99030.91;;;0.40;99.08
4398;BME280;2213;49.720;7.296;2023-02-28T00:38:35;99028.25;;;0.41;99.43
4398;BME280;2213;49.720;7.296;2023-02-28T00:41:05;99027.50;;;0.39;100.00
4398;BME280;2213;49.720;7.296;2023-02-28T00:43:37;99035.00;;;0.30;100.00
4398;BME280;2213;49.720;7.296;2023-02-28T00:46:07;99033.75;;;0.35;100.00
4398;BME280;2213;49.720;7.296;2023-02-28T00:48:38;99033.97;;;0.32;100.00
4398;BME280;2213;49.720;7.296;2023-02-28T00:51:09;99024.22;;;0.37;100.00
4398;BME280;2213;49.720;7.296;2023-02-28T00:53:39;99030.06;;;0.39;100.00
4398;BME280;2213;49.720;7.296;2023-02-28T00:56:09;99034.38;;;0.39;100.00
4398;BME280;2213;49.720;7.296;2023-02-28T00:58:39;99033.56;;;0.38;100.00
4398;BME280;2213;49.720;7.296;2023-02-28T01:01:10;99033.97;;;0.32;100.00
4398;BME280;2213;49.720;7.296;2023-02-28T01:03:41;99036.53;;;0.32;100.00
4398;BME280;2213;49.720;7.296;2023-02-28T01:06:10;99039.00;;;0.34;100.00
4398;BME280;2213;49.720;7.296;2023-02-28T01:08:41;99040.75;;;0.33;100.00
4398;BME280;2213;49.720;7.296;2023-02-28T01:11:12;99035.69;;;0.32;100.00
4398;BME280;2213;49.720;7.296;2023-02-28T01:13:43;99042.78;;;0.28;100.00
4398;BME280;2213;49.720;7.296;2023-02-28T01:16:13;99040.22;;;0.28;100.00
4398;BME280;2213;49.720;7.296;2023-02-28T01:18:44;99038.59;;;0.27;100.00
4398;BME280;2213;49.720;7.296;2023-02-28T01:21:17;99043.53;;;0.30;100.00
4398;BME280;2213;49.720;7.296;2023-02-28T01:23:48;99035.38;;;0.24;100.00
4398;BME280;2213;49.720;7.296;2023-02-28T01:26:21;99036.78;;;0.15;100.00
4398;BME280;2213;49.720;7.296;2023-02-28T01:28:53;99035.88;;;0.16;100.00
4398;BME280;2213;49.720;7.296;2023-02-28T01:31:23;99037.63;;;0.16;100.00
4398;BME280;2213;49.720;7.296;2023-02-28T01:33:54;99032.47;;;0.16;100.00
4398;BME280;2213;49.720;7.296;2023-02-28T01:36:25;99037.19;;;0.09;100.00
4398;BME280;2213;49.720;7.296;2023-02-28T01:38:55;99040.25;;;0.14;100.00
4398;BME280;2213;49.720;7.296;2023-02-28T01:41:27;99035.03;;;0.16;100.00
4398;BME280;2213;49.720;7.296;2023-02-28T01:44:02;99034.97;;;0.17;100.00
4398;BME280;2213;49.720;7.296;2023-02-28T01:46:34;99038.25;;;0.19;100.00
4398;BME280;2213;49.720;7.296;2023-02-28T01:49:11;99034.22;;;0.15;100.00
4398;BME280;2213;49.720;7.296;2023-02-28T01:51:46;99037.69;;;0.14;100.00
4398;BME280;2213;49.720;7.296;2023-02-28T01:54:26;99025.97;;;0.10;100.00
4398;BME280;2213;49.720;7.296;2023-02-28T01:57:02;99028.34;;;0.13;100.00
4398;BME280;2213;49.720;7.296;2023-02-28T01:59:39;99030.19;;;0.11;100.00
4398;BME280;2213;49.720;7.296;2023-02-28T02:02:15;99026.78;;;0.11;100.00
4398;BME280;2213;49.720;7.296;2023-02-28T02:04:53;99032.44;;;0.03;100.00
4398;BME280;2213;49.720;7.296;2023-02-28T02:07:24;99029.22;;;-0.01;100.00
4398;BME280;2213;49.720;7.296;2023-02-28T02:10:02;99031.59;;;0.03;100.00
4398;BME280;2213;49.720;7.296;2023-02-28T02:13:02;99020.50;;;0.02;100.00
4398;BME280;2213;49.720;7.296;2023-02-28T02:15:41;99022.50;;;-0.03;100.00
4398;BME280;2213;49.720;7.296;2023-02-28T02:18:22;99017.97;;;-0.12;100.00
4398;BME280;2213;49.720;7.296;2023-02-28T02:21:45;99019.06;;;-0.16;100.00
4398;BME280;2213;49.720;7.296;2023-02-28T02:25:15;99020.63;;;-0.14;100.00
4398;BME280;2213;49.720;7.296;2023-02-28T02:28:27;99015.47;;;-0.14;100.00
4398;BME280;2213;49.720;7.296;2023-02-28T02:34:57;99013.56;;;-0.24;100.00
4398;BME280;2213;49.720;7.296;2023-02-28T02:37:40;99017.56;;;-0.33;100.00
4398;BME280;2213;49.720;7.296;2023-02-28T02:40:16;99024.63;;;-0.36;100.00
4398;BME280;2213;49.720;7.296;2023-02-28T02:42:53;99019.75;;;-0.41;100.00
4398;BME280;2213;49.720;7.296;2023-02-28T02:45:28;99011.06;;;-0.38;100.00
4398;BME280;2213;49.720;7.296;2023-02-28T02:48:09;99012.69;;;-0.37;100.00
4398;BME280;2213;49.720;7.296;2023-02-28T02:50:48;99007.56;;;-0.37;100.00
4398;BME280;2213;49.720;7.296;2023-02-28T02:53:26;99006.09;;;-0.41;100.00
4398;BME280;2213;49.720;7.296;2023-02-28T02:55:57;99012.88;;;-0.40;100.00
4398;BME280;2213;49.720;7.296;2023-02-28T02:58:35;99005.00;;;-0.52;100.00
4398;BME280;2213;49.720;7.296;2023-02-28T03:01:15;99009.44;;;-0.54;100.00
4398;BME280;2213;49.720;7.296;2023-02-28T03:03:45;99006.88;;;-0.54;100.00
4398;BME280;2213;49.720;7.296;2023-02-28T03:06:17;99006.66;;;-0.51;100.00
4398;BME280;2213;49.720;7.296;2023-02-28T03:08:48;99004.19;;;-0.52;100.00
4398;BME280;2213;49.720;7.296;2023-02-28T03:11:17;98996.16;;;-0.60;100.00
4398;BME280;2213;49.720;7.296;2023-02-28T03:14:28;98997.16;;;-0.63;100.00
4398;BME280;2213;49.720;7.296;2023-02-28T03:17:24;98994.75;;;-0.66;100.00
4398;BME280;2213;49.720;7.296;2023-02-28T03:20:15;99000.19;;;-0.70;100.00
4398;BME280;2213;49.720;7.296;2023-02-28T03:22:59;99006.50;;;-0.76;100.00
4398;BME280;2213;49.720;7.296;2023-02-28T03:25:40;99006.63;;;-0.77;100.00
4398;BME280;2213;49.720;7.296;2023-02-28T03:28:23;99011.19;;;-0.82;100.00
4398;BME280;2213;49.720;7.296;2023-02-28T03:31:06;99009.63;;;-0.85;100.00
4398;BME280;2213;49.720;7.296;2023-02-28T03:33:43;99005.97;;;-0.81;100.00
4398;BME280;2213;49.720;7.296;2023-02-28T03:36:19;99005.78;;;-0.92;100.00
4398;BME280;2213;49.720;7.296;2023-02-28T03:38:56;99003.47;;;-0.96;100.00
4398;BME280;2213;49.720;7.296;2023-02-28T03:41:37;99009.63;;;-0.99;100.00
4398;BME280;2213;49.720;7.296;2023-02-28T03:44:13;99005.59;;;-1.03;100.00
4398;BME280;2213;49.720;7.296;2023-02-28T03:46:52;99001.22;;;-1.01;100.00
4398;BME280;2213;49.720;7.296;2023-02-28T03:49:25;99010.34;;;-0.97;100.00
4398;BME280;2213;49.720;7.296;2023-02-28T03:51:58;99000.28;;;-1.00;100.00
4398;BME280;2213;49.720;7.296;2023-02-28T03:54:35;99007.25;;;-1.02;100.00
4398;BME280;2213;49.720;7.296;2023-02-28T03:57:11;99007.69;;;-1.10;100.00
4398;BME280;2213;49.720;7.296;2023-02-28T03:59:48;99007.81;;;-1.11;100.00
4398;BME280;2213;49.720;7.296;2023-02-28T04:02:21;99010.09;;;-1.07;100.00
4398;BME280;2213;49.720;7.296;2023-02-28T04:04:51;98999.63;;;-1.18;100.00
4398;BME280;2213;49.720;7.296;2023-02-28T04:07:21;98996.78;;;-1.13;100.00
4398;BME280;2213;49.720;7.296;2023-02-28T04:09:53;99000.44;;;-1.17;100.00
4398;BME280;2213;49.720;7.296;2023-02-28T04:12:24;99009.09;;;-1.18;100.00
4398;BME280;2213;49.720;7.296;2023-02-28T04:14:52;99001.38;;;-1.18;100.00
4398;BME280;2213;49.720;7.296;2023-02-28T04:17:22;99004.75;;;-1.18;100.00
4398;BME280;2213;49.720;7.296;2023-02-28T04:19:50;99006.34;;;-1.15;100.00
4398;BME280;2213;49.720;7.296;2023-02-28T04:22:20;99005.75;;;-1.20;100.00
4398;BME280;2213;49.720;7.296;2023-02-28T04:24:50;99007.44;;;-1.19;100.00
4398;BME280;2213;49.720;7.296;2023-02-28T04:27:24;99003.19;;;-1.20;100.00
4398;BME280;2213;49.720;7.296;2023-02-28T04:29:55;99009.41;;;-1.24;100.00
4398;BME280;2213;49.720;7.296;2023-02-28T04:32:26;99003.75;;;-1.29;100.00
4398;BME280;2213;49.720;7.296;2023-02-28T04:34:55;99004.41;;;-1.26;100.00
4398;BME280;2213;49.720;7.296;2023-02-28T04:37:24;99008.59;;;-1.25;100.00
4398;BME280;2213;49.720;7.296;2023-02-28T04:39:57;99007.22;;;-1.30;100.00
4398;BME280;2213;49.720;7.296;2023-02-28T04:42:28;99004.00;;;-1.34;100.00
4398;BME280;2213;49.720;7.296;2023-02-28T04:45:04;99005.03;;;-1.36;100.00
4398;BME280;2213;49.720;7.296;2023-02-28T04:47:34;99006.84;;;-1.38;100.00
4398;BME280;2213;49.720;7.296;2023-02-28T04:50:05;99006.94;;;-1.40;100.00
4398;BME280;2213;49.720;7.296;2023-02-28T04:52:34;99005.91;;;-1.37;100.00
4398;BME280;2213;49.720;7.296;2023-02-28T04:55:05;99006.84;;;-1.38;100.00
4398;BME280;2213;49.720;7.296;2023-02-28T04:57:38;99015.63;;;-1.42;100.00
4398;BME280;2213;49.720;7.296;2023-02-28T05:00:09;99015.78;;;-1.45;100.00
4398;BME280;2213;49.720;7.296;2023-02-28T05:02:40;99007.38;;;-1.47;100.00
4398;BME280;2213;49.720;7.296;2023-02-28T05:05:10;99016.81;;;-1.48;100.00
4398;BME280;2213;49.720;7.296;2023-02-28T05:07:41;99009.22;;;-1.49;100.00
4398;BME280;2213;49.720;7.296;2023-02-28T05:10:11;99013.50;;;-1.50;100.00
4398;BME280;2213;49.720;7.296;2023-02-28T05:12:42;99015.06;;;-1.47;100.00
4398;BME280;2213;49.720;7.296;2023-02-28T05:15:13;99012.88;;;-1.54;100.00
4398;BME280;2213;49.720;7.296;2023-02-28T05:17:43;99011.19;;;-1.55;100.00
4398;BME280;2213;49.720;7.296;2023-02-28T05:20:14;99012.88;;;-1.54;100.00
4398;BME280;2213;49.720;7.296;2023-02-28T05:22:44;99012.53;;;-1.63;100.00
4398;BME280;2213;49.720;7.296;2023-02-28T05:25:18;99020.97;;;-1.61;100.00
4398;BME280;2213;49.720;7.296;2023-02-28T05:27:51;99027.84;;;-1.62;100.00
4398;BME280;2213;49.720;7.296;2023-02-28T05:30:21;99025.34;;;-1.63;100.00
4398;BME280;2213;49.720;7.296;2023-02-28T05:32:51;99019.31;;;-1.62;100.00
4398;BME280;2213;49.720;7.296;2023-02-28T05:35:21;99019.16;;;-1.59;100.00
4398;BME280;2213;49.720;7.296;2023-02-28T05:37:51;99020.97;;;-1.61;100.00
4398;BME280;2213;49.720;7.296;2023-02-28T05:40:22;99029.56;;;-1.62;100.00
4398;BME280;2213;49.720;7.296;2023-02-28T05:42:52;99024.72;;;-1.67;100.00
4398;BME280;2213;49.720;7.296;2023-02-28T05:45:22;99018.03;;;-1.69;100.00
4398;BME280;2213;49.720;7.296;2023-02-28T05:47:53;99019.75;;;-1.70;100.00
4398;BME280;2213;49.720;7.296;2023-02-28T05:50:24;99027.78;;;-1.76;100.00
4398;BME280;2213;49.720;7.296;2023-02-28T05:52:53;99027.72;;;-1.74;100.00
4398;BME280;2213;49.720;7.296;2023-02-28T05:55:23;99020.09;;;-1.76;100.00
4398;BME280;2213;49.720;7.296;2023-02-28T05:57:56;99020.28;;;-1.79;100.00
4398;BME280;2213;49.720;7.296;2023-02-28T06:00:24;99022.19;;;-1.82;100.00
4398;BME280;2213;49.720;7.296;2023-02-28T06:02:54;99032.44;;;-1.82;100.00
4398;BME280;2213;49.720;7.296;2023-02-28T06:05:28;99038.47;;;-1.83;100.00
4398;BME280;2213;49.720;7.296;2023-02-28T06:07:58;99033.28;;;-1.82;100.00
4398;BME280;2213;49.720;7.296;2023-02-28T06:10:28;99035.72;;;-1.80;100.00
4398;BME280;2213;49.720;7.296;2023-02-28T06:13:02;99035.91;;;-1.83;100.00
4398;BME280;2213;49.720;7.296;2023-02-28T06:15:32;99039.78;;;-1.76;100.00
4398;BME280;2213;49.720;7.296;2023-02-28T06:18:03;99037.69;;;-1.70;100.00
4398;BME280;2213;49.720;7.296;2023-02-28T06:20:32;99035.88;;;-1.68;100.00
4398;BME280;2213;49.720;7.296;2023-02-28T06:23:02;99039.94;;;-1.64;100.00
4398;BME280;2213;49.720;7.296;2023-02-28T06:25:31;99044.13;;;-1.63;100.00
4398;BME280;2213;49.720;7.296;2023-02-28T06:28:03;99041.38;;;-1.60;100.00
4398;BME280;2213;49.720;7.296;2023-02-28T06:30:34;99043.94;;;-1.60;100.00
4398;BME280;2213;49.720;7.296;2023-02-28T06:33:04;99050.91;;;-1.62;100.00
4398;BME280;2213;49.720;7.296;2023-02-28T06:35:33;99051.63;;;-1.60;100.00
4398;BME280;2213;49.720;7.296;2023-02-28T06:38:03;99046.50;;;-1.60;100.00
4398;BME280;2213;49.720;7.296;2023-02-28T06:40:34;99050.56;;;-1.56;100.00
4398;BME280;2213;49.720;7.296;2023-02-28T06:43:05;99049.47;;;-1.52;100.00
4398;BME280;2213;49.720;7.296;2023-02-28T06:45:36;99055.88;;;-1.59;100.00
4398;BME280;2213;49.720;7.296;2023-02-28T06:48:07;99066.78;;;-1.55;100.00
4398;BME280;2213;49.720;7.296;2023-02-28T06:50:36;99058.84;;;-1.50;100.00
4398;BME280;2213;49.720;7.296;2023-02-28T06:53:06;99053.72;;;-1.50;100.00
4398;BME280;2213;49.720;7.296;2023-02-28T06:55:38;99058.84;;;-1.50;100.00
4398;BME280;2213;49.720;7.296;2023-02-28T06:58:09;99066.69;;;-1.54;100.00
4398;BME280;2213;49.720;7.296;2023-02-28T07:00:44;99065.94;;;-1.56;100.00
4398;BME280;2213;49.720;7.296;2023-02-28T07:03:14;99070.25;;;-1.56;100.00
4398;BME280;2213;49.720;7.296;2023-02-28T07:05:45;99071.91;;;-1.55;100.00
4398;BME280;2213;49.720;7.296;2023-02-28T07:08:14;99072.91;;;-1.58;100.00
4398;BME280;2213;49.720;7.296;2023-02-28T07:10:44;99066.59;;;-1.52;100.00
4398;BME280;2213;49.720;7.296;2023-02-28T07:13:16;99072.56;;;-1.52;100.00
4398;BME280;2213;49.720;7.296;2023-02-28T07:15:53;99078.50;;;-1.51;100.00
4398;BME280;2213;49.720;7.296;2023-02-28T07:18:23;99079.34;;;-1.50;100.00
4398;BME280;2213;49.720;7.296;2023-02-28T07:20:54;99079.16;;;-1.47;100.00
4398;BME280;2213;49.720;7.296;2023-02-28T07:23:24;99077.34;;;-1.45;100.00
4398;BME280;2213;49.720;7.296;2023-02-28T07:25:54;99078.28;;;-1.46;100.00
4398;BME280;2213;49.720;7.296;2023-02-28T07:28:26;99082.81;;;-1.52;100.00
4398;BME280;2213;49.720;7.296;2023-02-28T07:30:56;99082.63;;;-1.48;100.00
4398;BME280;2213;49.720;7.296;2023-02-28T07:33:26;99072.31;;;-1.47;100.00
4398;BME280;2213;49.720;7.296;2023-02-28T07:36:01;99078.91;;;-1.43;100.00
4398;BME280;2213;49.720;7.296;2023-02-28T07:38:34;99082.31;;;-1.42;100.00
4398;BME280;2213;49.720;7.296;2023-02-28T07:41:04;99073.69;;;-1.41;100.00
4398;BME280;2213;49.720;7.296;2023-02-28T07:43:35;99079.28;;;-1.35;100.00
4398;BME280;2213;49.720;7.296;2023-02-28T07:46:07;99074.09;;;-1.33;100.00
4398;BME280;2213;49.720;7.296;2023-02-28T07:48:38;99070.63;;;-1.32;100.00
4398;BME280;2213;49.720;7.296;2023-02-28T07:51:08;99071.16;;;-1.27;100.00
4398;BME280;2213;49.720;7.296;2023-02-28T07:53:37;99064.22;;;-1.25;100.00
4398;BME280;2213;49.720;7.296;2023-02-28T07:56:08;99073.56;;;-1.24;100.00
4398;BME280;2213;49.720;7.296;2023-02-28T07:58:40;99070.97;;;-1.24;100.00
4398;BME280;2213;49.720;7.296;2023-02-28T08:01:11;99074.13;;;-1.19;100.00
4398;BME280;2213;49.720;7.296;2023-02-28T08:03:41;99077.22;;;-1.14;100.00
4398;BME280;2213;49.720;7.296;2023-02-28T08:06:18;99072.84;;;-1.12;100.00
4398;BME280;2213;49.720;7.296;2023-02-28T08:08:48;99078.47;;;-1.06;100.00
4398;BME280;2213;49.720;7.296;2023-02-28T08:11:18;99078.03;;;-0.98;100.00
4398;BME280;2213;49.720;7.296;2023-02-28T08:13:49;99070.78;;;-0.91;100.00
4398;BME280;2213;49.720;7.296;2023-02-28T08:16:18;99065.38;;;-0.87;100.00
4398;BME280;2213;49.720;7.296;2023-02-28T08:18:50;99074.34;;;-0.80;100.00
4398;BME280;2213;49.720;7.296;2023-02-28T08:21:21;99067.94;;;-0.73;100.00
4398;BME280;2213;49.720;7.296;2023-02-28T08:23:51;99082.16;;;-0.67;100.00
4398;BME280;2213;49.720;7.296;2023-02-28T08:26:20;99064.47;;;-0.58;100.00
4398;BME280;2213;49.720;7.296;2023-02-28T08:28:51;99069.22;;;-0.52;100.00
4398;BME280;2213;49.720;7.296;2023-02-28T08:31:23;99057.66;;;-0.44;100.00
4398;BME280;2213;49.720;7.296;2023-02-28T08:33:54;99063.16;;;-0.36;100.00
4398;BME280;2213;49.720;7.296;2023-02-28T08:36:27;99075.53;;;-0.29;100.00
4398;BME280;2213;49.720;7.296;2023-02-28T08:38:58;99058.91;;;-0.23;100.00
4398;BME280;2213;49.720;7.296;2023-02-28T08:41:27;99053.38;;;-0.17;100.00
4398;BME280;2213;49.720;7.296;2023-02-28T08:43:59;99065.69;;;-0.08;100.00
4398;BME280;2213;49.720;7.296;2023-02-28T08:46:29;99058.50;;;-0.03;100.00
4398;BME280;2213;49.720;7.296;2023-02-28T08:48:59;99061.63;;;0.02;100.00
4398;BME280;2213;49.720;7.296;2023-02-28T08:51:30;99051.78;;;0.09;100.00
4398;BME280;2213;49.720;7.296;2023-02-28T08:54:00;99060.84;;;0.14;100.00
4398;BME280;2213;49.720;7.296;2023-02-28T08:56:30;99057.06;;;0.20;100.00
4398;BME280;2213;49.720;7.296;2023-02-28T08:59:02;99055.75;;;0.27;100.00
4398;BME280;2213;49.720;7.296;2023-02-28T09:01:31;99059.69;;;0.32;100.00
4398;BME280;2213;49.720;7.296;2023-02-28T09:04:01;99064.34;;;0.40;100.00
4398;BME280;2213;49.720;7.296;2023-02-28T09:06:31;99065.69;;;0.45;100.00
4398;BME280;2213;49.720;7.296;2023-02-28T09:09:02;99067.97;;;0.50;100.00
4398;BME280;2213;49.720;7.296;2023-02-28T09:11:35;99067.69;;;0.55;100.00
4398;BME280;2213;49.720;7.296;2023-02-28T09:14:07;99064.06;;;0.57;100.00
4398;BME280;2213;49.720;7.296;2023-02-28T09:16:37;99062.22;;;0.59;100.00
4398;BME280;2213;49.720;7.296;2023-02-28T09:19:10;99061.00;;;0.65;100.00
4398;BME280;2213;49.720;7.296;2023-02-28T09:21:39;99055.75;;;0.66;99.69
4398;BME280;2213;49.720;7.296;2023-02-28T09:24:09;99053.00;;;0.69;99.24
4398;BME280;2213;49.720;7.296;2023-02-28T09:26:41;99062.06;;;0.75;99.67
4398;BME280;2213;49.720;7.296;2023-02-28T09:29:31;99056.63;;;0.79;98.98
4398;BME280;2213;49.720;7.296;2023-02-28T09:32:02;99062.25;;;0.84;98.00
4398;BME280;2213;49.720;7.296;2023-02-28T09:34:33;99054.25;;;0.89;96.57
4398;BME280;2213;49.720;7.296;2023-02-28T09:37:05;99052.38;;;0.91;95.84
4398;BME280;2213;49.720;7.296;2023-02-28T09:39:34;99051.16;;;0.96;96.22
4398;BME280;2213;49.720;7.296;2023-02-28T09:42:04;99054.16;;;1.03;96.56
4398;BME280;2213;49.720;7.296;2023-02-28T09:44:40;99046.00;;;1.09;95.89
4398;BME280;2213;49.720;7.296;2023-02-28T09:47:20;99054.34;;;1.13;93.60
4398;BME280;2213;49.720;7.296;2023-02-28T09:49:51;99053.44;;;1.14;93.26
4398;BME280;2213;49.720;7.296;2023-02-28T09:52:27;99053.09;;;1.18;93.17
4398;BME280;2213;49.720;7.296;2023-02-28T09:55:04;99058.09;;;1.21;94.07
4398;BME280;2213;49.720;7.296;2023-02-28T09:57:41;99052.59;;;1.26;93.53
4398;BME280;2213;49.720;7.296;2023-02-28T10:00:18;99048.06;;;1.29;93.17
4398;BME280;2213;49.720;7.296;2023-02-28T10:03:15;99049.50;;;1.33;93.85
4398;BME280;2213;49.720;7.296;2023-02-28T10:05:54;99042.31;;;1.38;92.21
4398;BME280;2213;49.720;7.296;2023-02-28T10:08:31;99047.25;;;1.41;91.57
4398;BME280;2213;49.720;7.296;2023-02-28T10:11:07;99046.09;;;1.45;91.61
4398;BME280;2213;49.720;7.296;2023-02-28T10:13:50;99057.03;;;1.49;91.15
4398;BME280;2213;49.720;7.296;2023-02-28T10:16:30;99055.88;;;1.53;91.12
4398;BME280;2213;49.720;7.296;2023-02-28T10:19:08;99050.63;;;1.55;90.66
4398;BME280;2213;49.720;7.296;2023-02-28T10:21:47;99052.75;;;1.61;90.07
4398;BME280;2213;49.720;7.296;2023-02-28T10:24:26;99043.81;;;1.66;88.87
4398;BME280;2213;49.720;7.296;2023-02-28T10:27:01;99055.88;;;1.66;88.39
4398;BME280;2213;49.720;7.296;2023-02-28T10:29:43;99053.28;;;1.66;89.29
4398;BME280;2213;49.720;7.296;2023-02-28T10:32:19;99049.22;;;1.74;89.82
4398;BME280;2213;49.720;7.296;2023-02-28T10:34:52;99051.50;;;1.79;89.41
4398;BME280;2213;49.720;7.296;2023-02-28T10:37:24;99047.88;;;1.81;89.62
4398;BME280;2213;49.720;7.296;2023-02-28T10:39:56;99047.56;;;1.86;87.51
4398;BME280;2213;49.720;7.296;2023-02-28T10:42:28;99037.84;;;1.89;86.69
4398;BME280;2213;49.720;7.296;2023-02-28T10:45:10;99027.22;;;1.94;85.65
4398;BME280;2213;49.720;7.296;2023-02-28T10:47:54;99029.44;;;1.98;84.82
4398;BME280;2213;49.720;7.296;2023-02-28T10:50:32;99030.78;;;2.04;84.51
4398;BME280;2213;49.720;7.296;2023-02-28T10:53:32;99030.56;;;2.07;82.86
4398;BME280;2213;49.720;7.296;2023-02-28T10:56:24;99025.69;;;2.15;83.61
4398;BME280;2213;49.720;7.296;2023-02-28T10:58:56;99025.56;;;2.17;81.72
4398;BME280;2213;49.720;7.296;2023-02-28T11:01:38;99024.28;;;2.22;81.88
4398;BME280;2213;49.720;7.296;2023-02-28T11:04:32;99026.69;;;2.25;82.69
4398;BME280;2213;49.720;7.296;2023-02-28T11:07:06;99023.66;;;2.31;82.85
4398;BME280;2213;49.720;7.296;2023-02-28T11:09:39;99030.25;;;2.35;81.72
4398;BME280;2213;49.720;7.296;2023-02-28T11:12:22;99026.69;;;2.36;77.85
4398;BME280;2213;49.720;7.296;2023-02-28T11:14:57;99028.34;;;2.37;74.10
4398;BME280;2213;49.720;7.296;2023-02-28T11:17:29;99030.47;;;2.32;73.71
4398;BME280;2213;49.720;7.296;2023-02-28T11:20:05;99029.63;;;2.32;72.62
4398;BME280;2213;49.720;7.296;2023-02-28T11:22:39;99039.00;;;2.33;73.45
4398;BME280;2213;49.720;7.296;2023-02-28T11:25:24;99019.69;;;2.38;72.99
4398;BME280;2213;49.720;7.296;2023-02-28T11:27:57;99025.22;;;2.45;73.98
4398;BME280;2213;49.720;7.296;2023-02-28T11:30:35;99022.31;;;2.49;73.92
4398;BME280;2213;49.720;7.296;2023-02-28T11:33:28;99032.28;;;2.54;73.33
4398;BME280;2213;49.720;7.296;2023-02-28T11:36:03;99026.19;;;2.55;71.87
4398;BME280;2213;49.720;7.296;2023-02-28T11:38:38;99028.44;;;2.60;72.62
4398;BME280;2213;49.720;7.296;2023-02-28T11:41:42;99011.06;;;2.62;71.17
4398;BME280;2213;49.720;7.296;2023-02-28T11:44:33;99024.72;;;2.64;71.23
4398;BME280;2213;49.720;7.296;2023-02-28T11:47:17;99028.22;;;2.63;70.62
4398;BME280;2213;49.720;7.296;2023-02-28T11:50:10;99021.16;;;2.65;71.25
4398;BME280;2213;49.720;7.296;2023-02-28T11:52:53;99012.97;;;2.60;70.74
4398;BME280;2213;49.720;7.296;2023-02-28T11:55:27;99009.66;;;2.58;71.12
4398;BME280;2213;49.720;7.296;2023-02-28T12:01:39;99005.44;;;2.68;70.22
4398;BME280;2213;49.720;7.296;2023-02-28T12:04:39;99014.53;;;2.73;70.53
4398;BME280;2213;49.720;7.296;2023-02-28T12:07:20;99025.53;;;2.75;70.23
4398;BME280;2213;49.720;7.296;2023-02-28T12:10:06;99016.97;;;2.75;68.48
4398;BME280;2213;49.720;7.296;2023-02-28T12:12:48;99013.22;;;2.79;68.01
4398;BME280;2213;49.720;7.296;2023-02-28T12:15:38;99001.84;;;2.81;68.55
4398;BME280;2213;49.720;7.296;2023-02-28T12:18:26;99012.75;;;2.85;68.86
4398;BME280;2213;49.720;7.296;2023-02-28T12:21:11;98997.50;;;2.82;68.01
4398;BME280;2213;49.720;7.296;2023-02-28T12:24:00;99008.41;;;2.85;69.09
4398;BME280;2213;49.720;7.296;2023-02-28T12:26:40;99015.34;;;2.85;68.70
4398;BME280;2213;49.720;7.296;2023-02-28T12:29:19;99007.59;;;2.85;69.07
4398;BME280;2213;49.720;7.296;2023-02-28T12:31:56;99007.41;;;2.88;69.60
4398;BME280;2213;49.720;7.296;2023-02-28T12:34:35;99010.91;;;2.87;69.37
4398;BME280;2213;49.720;7.296;2023-02-28T12:37:13;99014.19;;;2.89;69.42
4398;BME280;2213;49.720;7.296;2023-02-28T12:39:48;99017.25;;;2.94;69.90
4398;BME280;2213;49.720;7.296;2023-02-28T12:42:28;99011.16;;;2.95;70.05
4398;BME280;2213;49.720;7.296;2023-02-28T12:45:03;99000.59;;;2.98;69.88
4398;BME280;2213;49.720;7.296;2023-02-28T12:47:41;99015.38;;;3.07;70.19
4398;BME280;2213;49.720;7.296;2023-02-28T12:50:12;98999.56;;;3.12;69.78
4398;BME280;2213;49.720;7.296;2023-02-28T12:52:53;98997.78;;;3.12;68.78
4398;BME280;2213;49.720;7.296;2023-02-28T12:55:37;98991.44;;;3.16;68.71
4398;BME280;2213;49.720;7.296;2023-02-28T12:58:19;98988.63;;;3.19;69.09
4398;BME280;2213;49.720;7.296;2023-02-28T13:04:34;98980.50;;;3.35;68.46
4398;BME280;2213;49.720;7.296;2023-02-28T13:07:57;98983.56;;;3.40;68.47
4398;BME280;2213;49.720;7.296;2023-02-28T13:10:41;98985.78;;;3.44;66.77
4398;BME280;2213;49.720;7.296;2023-02-28T13:13:22;98987.53;;;3.44;66.27
4398;BME280;2213;49.720;7.296;2023-02-28T13:16:02;98987.44;;;3.45;65.22
4398;BME280;2213;49.720;7.296;2023-02-28T13:18:37;98977.78;;;3.47;64.91
4398;BME280;2213;49.720;7.296;2023-02-28T13:21:10;98984.38;;;3.51;65.33
4398;BME280;2213;49.720;7.296;2023-02-28T13:24:03;98984.03;;;3.56;64.99
4398;BME280;2213;49.720;7.296;2023-02-28T13:27:22;98981.09;;;3.61;65.61
4398;BME280;2213;49.720;7.296;2023-02-28T13:29:54;99005.28;;;3.60;65.50
4398;BME280;2213;49.720;7.296;2023-02-28T13:32:34;98985.66;;;3.57;64.06
4398;BME280;2213;49.720;7.296;2023-02-28T13:35:35;98982.47;;;3.65;64.25
4398;BME280;2213;49.720;7.296;2023-02-28T13:38:25;98987.88;;;3.62;63.17
4398;BME280;2213;49.720;7.296;2023-02-28T13:41:46;98982.00;;;3.60;62.98
4398;BME280;2213;49.720;7.296;2023-02-28T13:44:19;98987.63;;;3.65;63.14
4398;BME280;2213;49.720;7.296;2023-02-28T13:47:28;98985.75;;;3.67;62.88
4398;BME280;2213;49.720;7.296;2023-02-28T13:50:34;98979.28;;;3.72;62.99
4398;BME280;2213;49.720;7.296;2023-02-28T13:53:41;98978.00;;;3.78;63.17
4398;BME280;2213;49.720;7.296;2023-02-28T13:56:34;98978.69;;;3.80;63.28
4398;BME280;2213;49.720;7.296;2023-02-28T13:59:28;98985.13;;;3.85;63.47
4398;BME280;2213;49.720;7.296;2023-02-28T14:02:32;98986.53;;;3.89;62.42
4398;BME280;2213;49.720;7.296;2023-02-28T14:05:13;98977.81;;;3.90;62.59
4398;BME280;2213;49.720;7.296;2023-02-28T14:07:48;98988.75;;;3.94;61.98
4398;BME280;2213;49.720;7.296;2023-02-28T14:10:30;98984.41;;;3.94;61.73
4398;BME280;2213;49.720;7.296;2023-02-28T14:13:13;98976.50;;;3.96;62.09
4398;BME280;2213;49.720;7.296;2023-02-28T14:16:11;98974.38;;;4.01;61.02
4398;BME280;2213;49.720;7.296;2023-02-28T14:18:55;98985.06;;;4.07;61.84